sensor_id;sensor_type;location;lat;lon;timestamp;P1;durP1;ratioP1;P2;durP2;ratioP2
37943;SDS011;23767;42.024;23.086;2023-08-08T00:02:20;3.58;;;1.55;;
37943;SDS011;23767;42.024;23.086;2023-08-08T00:04:48;3.83;;;1.55;;
37943;SDS011;23767;42.024;23.086;2023-08-08T00:07:16;2.65;;;1.40;;
37943;SDS011;23767;42.024;23.086;2023-08-08T00:09:42;3.95;;;1.67;;
37943;SDS011;23767;42.024;23.086;2023-08-08T00:12:08;3.95;;;1.38;;
37943;SDS011;23767;42.024;23.086;2023-08-08T00:14:34;3.47;;;1.50;;
37943;SDS011;23767;42.024;23.086;2023-08-08T00:17:00;3.78;;;1.55;;
37943;SDS011;23767;42.024;23.086;2023-08-08T00:19:26;3.53;;;1.58;;
37943;SDS011;23767;42.024;23.086;2023-08-08T00:21:52;3.03;;;1.42;;
37943;SDS011;23767;42.024;23.086;2023-08-08T00:24:18;3.40;;;1.50;;
37943;SDS011;23767;42.024;23.086;2023-08-08T00:26:44;3.38;;;1.58;;
37943;SDS011;23767;42.024;23.086;2023-08-08T00:29:10;2.60;;;1.40;;
37943;SDS011;23767;42.024;23.086;2023-08-08T00:31:36;2.75;;;1.50;;
37943;SDS011;23767;42.024;23.086;2023-08-08T00:34:02;3.65;;;1.70;;
37943;SDS011;23767;42.024;23.086;2023-08-08T00:36:28;3.50;;;1.80;;
37943;SDS011;23767;42.024;23.086;2023-08-08T00:38:54;5.03;;;1.80;;
37943;SDS011;23767;42.024;23.086;2023-08-08T00:41:21;4.20;;;1.80;;
37943;SDS011;23767;42.024;23.086;2023-08-08T00:43:47;3.75;;;1.58;;
37943;SDS011;23767;42.024;23.086;2023-08-08T00:46:20;4.15;;;1.80;;
37943;SDS011;23767;42.024;23.086;2023-08-08T00:48:46;4.75;;;1.70;;
37943;SDS011;23767;42.024;23.086;2023-08-08T00:51:12;5.90;;;1.95;;
37943;SDS011;23767;42.024;23.086;2023-08-08T00:53:39;3.50;;;1.50;;
37943;SDS011;23767;42.024;23.086;2023-08-08T00:56:05;4.20;;;1.83;;
37943;SDS011;23767;42.024;23.086;2023-08-08T00:58:31;5.05;;;1.70;;
37943;SDS011;23767;42.024;23.086;2023-08-08T01:00:57;4.80;;;1.88;;
37943;SDS011;23767;42.024;23.086;2023-08-08T01:03:25;5.30;;;1.77;;
37943;SDS011;23767;42.024;23.086;2023-08-08T01:06:02;4.95;;;2.00;;
37943;SDS011;23767;42.024;23.086;2023-08-08T01:08:33;3.92;;;1.70;;
37943;SDS011;23767;42.024;23.086;2023-08-08T01:11:01;5.32;;;1.90;;
37943;SDS011;23767;42.024;23.086;2023-08-08T01:13:28;3.72;;;1.65;;
37943;SDS011;23767;42.024;23.086;2023-08-08T01:15:56;5.82;;;2.10;;
37943;SDS011;23767;42.024;23.086;2023-08-08T01:18:23;3.63;;;1.52;;
37943;SDS011;23767;42.024;23.086;2023-08-08T01:20:50;3.10;;;1.38;;
37943;SDS011;23767;42.024;23.086;2023-08-08T01:23:39;5.90;;;1.80;;
37943;SDS011;23767;42.024;23.086;2023-08-08T01:26:05;5.88;;;1.88;;
37943;SDS011;23767;42.024;23.086;2023-08-08T01:28:33;4.32;;;1.63;;
37943;SDS011;23767;42.024;23.086;2023-08-08T01:30:59;5.70;;;1.75;;
37943;SDS011;23767;42.024;23.086;2023-08-08T01:33:25;3.47;;;1.27;;
37943;SDS011;23767;42.024;23.086;2023-08-08T01:35:56;3.55;;;1.40;;
37943;SDS011;23767;42.024;23.086;2023-08-08T01:38:28;3.63;;;1.40;;
37943;SDS011;23767;42.024;23.086;2023-08-08T01:40:56;2.95;;;1.35;;
37943;SDS011;23767;42.024;23.086;2023-08-08T01:43:23;5.07;;;1.60;;
37943;SDS011;23767;42.024;23.086;2023-08-08T01:45:50;3.90;;;1.45;;
37943;SDS011;23767;42.024;23.086;2023-08-08T01:48:16;2.47;;;1.10;;
37943;SDS011;23767;42.024;23.086;2023-08-08T01:50:42;2.28;;;1.23;;
37943;SDS011;23767;42.024;23.086;2023-08-08T01:53:08;3.35;;;1.40;;
37943;SDS011;23767;42.024;23.086;2023-08-08T01:55:35;3.45;;;1.40;;
37943;SDS011;23767;42.024;23.086;2023-08-08T01:58:01;2.85;;;1.40;;
37943;SDS011;23767;42.024;23.086;2023-08-08T02:00:27;2.70;;;1.42;;
37943;SDS011;23767;42.024;23.086;2023-08-08T02:02:53;2.95;;;1.38;;
37943;SDS011;23767;42.024;23.086;2023-08-08T02:05:19;2.72;;;1.35;;
37943;SDS011;23767;42.024;23.086;2023-08-08T02:07:45;2.70;;;1.35;;
37943;SDS011;23767;42.024;23.086;2023-08-08T02:10:11;5.35;;;1.40;;
37943;SDS011;23767;42.024;23.086;2023-08-08T02:12:37;2.83;;;1.35;;
37943;SDS011;23767;42.024;23.086;2023-08-08T02:15:03;2.20;;;1.27;;
37943;SDS011;23767;42.024;23.086;2023-08-08T02:17:29;2.15;;;1.17;;
37943;SDS011;23767;42.024;23.086;2023-08-08T02:19:55;3.42;;;1.27;;
37943;SDS011;23767;42.024;23.086;2023-08-08T02:22:21;4.43;;;1.40;;
37943;SDS011;23767;42.024;23.086;2023-08-08T02:24:47;2.72;;;1.40;;
37943;SDS011;23767;42.024;23.086;2023-08-08T02:27:13;3.30;;;1.30;;
37943;SDS011;23767;42.024;23.086;2023-08-08T02:29:40;2.08;;;1.13;;
37943;SDS011;23767;42.024;23.086;2023-08-08T02:32:06;8.63;;;1.77;;
37943;SDS011;23767;42.024;23.086;2023-08-08T02:34:32;3.20;;;1.30;;
37943;SDS011;23767;42.024;23.086;2023-08-08T02:36:58;4.50;;;1.45;;
37943;SDS011;23767;42.024;23.086;2023-08-08T02:39:24;5.65;;;1.58;;
37943;SDS011;23767;42.024;23.086;2023-08-08T02:41:50;3.15;;;1.40;;
37943;SDS011;23767;42.024;23.086;2023-08-08T02:44:16;3.50;;;1.52;;
37943;SDS011;23767;42.024;23.086;2023-08-08T02:46:43;3.45;;;1.20;;
37943;SDS011;23767;42.024;23.086;2023-08-08T02:49:09;4.30;;;1.60;;
37943;SDS011;23767;42.024;23.086;2023-08-08T02:51:35;3.58;;;1.60;;
37943;SDS011;23767;42.024;23.086;2023-08-08T02:54:01;3.55;;;1.40;;
37943;SDS011;23767;42.024;23.086;2023-08-08T02:56:27;7.15;;;1.40;;
37943;SDS011;23767;42.024;23.086;2023-08-08T02:58:53;3.28;;;1.50;;
37943;SDS011;23767;42.024;23.086;2023-08-08T03:01:19;3.42;;;1.60;;
37943;SDS011;23767;42.024;23.086;2023-08-08T03:03:46;5.32;;;1.40;;
37943;SDS011;23767;42.024;23.086;2023-08-08T03:06:13;2.83;;;1.40;;
37943;SDS011;23767;42.024;23.086;2023-08-08T03:08:39;5.43;;;1.40;;
37943;SDS011;23767;42.024;23.086;2023-08-08T03:11:05;2.53;;;1.42;;
37943;SDS011;23767;42.024;23.086;2023-08-08T03:13:31;2.70;;;1.50;;
37943;SDS011;23767;42.024;23.086;2023-08-08T03:15:57;5.32;;;1.63;;
37943;SDS011;23767;42.024;23.086;2023-08-08T03:18:23;5.22;;;1.40;;
37943;SDS011;23767;42.024;23.086;2023-08-08T03:20:51;2.85;;;1.45;;
37943;SDS011;23767;42.024;23.086;2023-08-08T03:23:17;3.33;;;1.52;;
37943;SDS011;23767;42.024;23.086;2023-08-08T03:25:43;3.10;;;1.60;;
37943;SDS011;23767;42.024;23.086;2023-08-08T03:28:09;5.85;;;1.83;;
37943;SDS011;23767;42.024;23.086;2023-08-08T03:30:38;3.67;;;1.33;;
37943;SDS011;23767;42.024;23.086;2023-08-08T03:33:04;4.60;;;1.60;;
37943;SDS011;23767;42.024;23.086;2023-08-08T03:35:30;2.53;;;1.40;;
37943;SDS011;23767;42.024;23.086;2023-08-08T03:37:56;3.30;;;1.50;;
37943;SDS011;23767;42.024;23.086;2023-08-08T03:40:22;3.53;;;1.50;;
37943;SDS011;23767;42.024;23.086;2023-08-08T03:42:48;3.05;;;1.63;;
37943;SDS011;23767;42.024;23.086;2023-08-08T03:45:14;4.28;;;1.80;;
37943;SDS011;23767;42.024;23.086;2023-08-08T03:47:40;5.72;;;1.60;;
37943;SDS011;23767;42.024;23.086;2023-08-08T03:50:06;3.67;;;1.70;;
37943;SDS011;23767;42.024;23.086;2023-08-08T03:52:33;2.42;;;1.33;;
37943;SDS011;23767;42.024;23.086;2023-08-08T03:55:02;3.72;;;1.38;;
37943;SDS011;23767;42.024;23.086;2023-08-08T03:57:28;4.03;;;1.52;;
37943;SDS011;23767;42.024;23.086;2023-08-08T03:59:54;5.50;;;1.52;;
37943;SDS011;23767;42.024;23.086;2023-08-08T04:02:20;3.15;;;1.50;;
37943;SDS011;23767;42.024;23.086;2023-08-08T04:04:46;2.83;;;1.50;;
37943;SDS011;23767;42.024;23.086;2023-08-08T04:07:12;3.90;;;1.45;;
37943;SDS011;23767;42.024;23.086;2023-08-08T04:09:38;4.97;;;1.58;;
37943;SDS011;23767;42.024;23.086;2023-08-08T04:12:04;3.53;;;1.58;;
37943;SDS011;23767;42.024;23.086;2023-08-08T04:14:30;3.50;;;1.60;;
37943;SDS011;23767;42.024;23.086;2023-08-08T04:16:56;4.85;;;1.55;;
37943;SDS011;23767;42.024;23.086;2023-08-08T04:19:22;3.03;;;1.33;;
37943;SDS011;23767;42.024;23.086;2023-08-08T04:21:48;3.15;;;1.70;;
37943;SDS011;23767;42.024;23.086;2023-08-08T04:24:14;3.60;;;1.83;;
37943;SDS011;23767;42.024;23.086;2023-08-08T04:26:40;4.43;;;1.67;;
37943;SDS011;23767;42.024;23.086;2023-08-08T04:29:06;3.75;;;1.63;;
37943;SDS011;23767;42.024;23.086;2023-08-08T04:31:32;5.57;;;1.75;;
37943;SDS011;23767;42.024;23.086;2023-08-08T04:33:59;3.63;;;1.70;;
37943;SDS011;23767;42.024;23.086;2023-08-08T04:36:28;3.90;;;1.63;;
37943;SDS011;23767;42.024;23.086;2023-08-08T04:38:54;5.28;;;1.60;;
37943;SDS011;23767;42.024;23.086;2023-08-08T04:41:21;5.97;;;1.70;;
37943;SDS011;23767;42.024;23.086;2023-08-08T04:43:47;3.38;;;1.60;;
37943;SDS011;23767;42.024;23.086;2023-08-08T04:46:13;4.22;;;1.50;;
37943;SDS011;23767;42.024;23.086;2023-08-08T04:48:39;4.15;;;1.88;;
37943;SDS011;23767;42.024;23.086;2023-08-08T04:51:05;4.18;;;1.73;;
37943;SDS011;23767;42.024;23.086;2023-08-08T04:53:31;4.18;;;1.70;;
37943;SDS011;23767;42.024;23.086;2023-08-08T04:55:57;4.78;;;1.73;;
37943;SDS011;23767;42.024;23.086;2023-08-08T04:58:24;4.30;;;1.90;;
37943;SDS011;23767;42.024;23.086;2023-08-08T05:03:21;6.53;;;1.73;;
37943;SDS011;23767;42.024;23.086;2023-08-08T05:05:47;4.38;;;1.63;;
37943;SDS011;23767;42.024;23.086;2023-08-08T05:08:13;2.97;;;1.52;;
37943;SDS011;23767;42.024;23.086;2023-08-08T05:10:39;6.38;;;1.83;;
37943;SDS011;23767;42.024;23.086;2023-08-08T05:13:05;3.38;;;1.70;;
37943;SDS011;23767;42.024;23.086;2023-08-08T05:15:31;5.65;;;1.98;;
37943;SDS011;23767;42.024;23.086;2023-08-08T05:17:57;4.72;;;1.60;;
37943;SDS011;23767;42.024;23.086;2023-08-08T05:20:24;3.55;;;1.70;;
37943;SDS011;23767;42.024;23.086;2023-08-08T05:22:50;4.43;;;1.80;;
37943;SDS011;23767;42.024;23.086;2023-08-08T05:25:16;5.55;;;1.90;;
37943;SDS011;23767;42.024;23.086;2023-08-08T05:27:42;3.03;;;1.65;;
37943;SDS011;23767;42.024;23.086;2023-08-08T05:30:08;4.15;;;1.70;;
37943;SDS011;23767;42.024;23.086;2023-08-08T05:32:34;3.72;;;1.70;;
37943;SDS011;23767;42.024;23.086;2023-08-08T05:35:01;3.45;;;1.83;;
37943;SDS011;23767;42.024;23.086;2023-08-08T05:37:29;4.63;;;1.73;;
37943;SDS011;23767;42.024;23.086;2023-08-08T05:39:55;4.95;;;2.00;;
37943;SDS011;23767;42.024;23.086;2023-08-08T05:42:21;5.75;;;1.75;;
37943;SDS011;23767;42.024;23.086;2023-08-08T05:44:47;3.40;;;1.75;;
37943;SDS011;23767;42.024;23.086;2023-08-08T05:47:13;4.68;;;2.13;;
37943;SDS011;23767;42.024;23.086;2023-08-08T05:49:39;5.25;;;2.15;;
37943;SDS011;23767;42.024;23.086;2023-08-08T05:52:08;8.60;;;1.83;;
37943;SDS011;23767;42.024;23.086;2023-08-08T05:54:34;4.03;;;1.73;;
37943;SDS011;23767;42.024;23.086;2023-08-08T05:57:01;4.47;;;1.88;;
37943;SDS011;23767;42.024;23.086;2023-08-08T05:59:27;6.47;;;2.30;;
37943;SDS011;23767;42.024;23.086;2023-08-08T06:01:53;4.78;;;2.00;;
37943;SDS011;23767;42.024;23.086;2023-08-08T06:04:19;5.03;;;2.30;;
37943;SDS011;23767;42.024;23.086;2023-08-08T06:06:45;6.10;;;2.10;;
37943;SDS011;23767;42.024;23.086;2023-08-08T06:09:14;4.80;;;2.20;;
37943;SDS011;23767;42.024;23.086;2023-08-08T06:11:40;6.38;;;2.10;;
37943;SDS011;23767;42.024;23.086;2023-08-08T06:14:06;10.82;;;2.72;;
37943;SDS011;23767;42.024;23.086;2023-08-08T06:16:32;8.73;;;2.40;;
37943;SDS011;23767;42.024;23.086;2023-08-08T06:18:58;5.78;;;2.20;;
37943;SDS011;23767;42.024;23.086;2023-08-08T06:21:24;6.53;;;2.00;;
37943;SDS011;23767;42.024;23.086;2023-08-08T06:23:50;8.77;;;2.10;;
37943;SDS011;23767;42.024;23.086;2023-08-08T06:26:19;9.73;;;2.03;;
37943;SDS011;23767;42.024;23.086;2023-08-08T06:28:46;5.15;;;1.65;;
37943;SDS011;23767;42.024;23.086;2023-08-08T06:31:12;7.10;;;1.83;;
37943;SDS011;23767;42.024;23.086;2023-08-08T06:33:38;6.93;;;1.80;;
37943;SDS011;23767;42.024;23.086;2023-08-08T06:36:04;8.10;;;2.30;;
37943;SDS011;23767;42.024;23.086;2023-08-08T06:38:30;5.93;;;1.67;;
37943;SDS011;23767;42.024;23.086;2023-08-08T06:41:00;7.50;;;1.90;;
37943;SDS011;23767;42.024;23.086;2023-08-08T06:43:26;5.43;;;1.80;;
37943;SDS011;23767;42.024;23.086;2023-08-08T06:45:52;7.78;;;1.90;;
37943;SDS011;23767;42.024;23.086;2023-08-08T06:48:18;8.20;;;2.20;;
37943;SDS011;23767;42.024;23.086;2023-08-08T06:50:44;9.68;;;1.92;;
37943;SDS011;23767;42.024;23.086;2023-08-08T06:53:10;3.92;;;1.38;;
37943;SDS011;23767;42.024;23.086;2023-08-08T06:55:36;4.25;;;1.63;;
37943;SDS011;23767;42.024;23.086;2023-08-08T06:58:02;8.02;;;1.75;;
37943;SDS011;23767;42.024;23.086;2023-08-08T07:00:28;3.95;;;1.35;;
37943;SDS011;23767;42.024;23.086;2023-08-08T07:02:54;6.75;;;1.60;;
37943;SDS011;23767;42.024;23.086;2023-08-08T07:05:20;6.05;;;1.85;;
37943;SDS011;23767;42.024;23.086;2023-08-08T07:07:50;2.38;;;1.30;;
37943;SDS011;23767;42.024;23.086;2023-08-08T07:10:17;7.43;;;1.60;;
37943;SDS011;23767;42.024;23.086;2023-08-08T07:12:43;3.45;;;1.38;;
37943;SDS011;23767;42.024;23.086;2023-08-08T07:15:09;6.22;;;1.65;;
37943;SDS011;23767;42.024;23.086;2023-08-08T07:17:36;5.25;;;1.23;;
37943;SDS011;23767;42.024;23.086;2023-08-08T07:20:02;3.38;;;1.20;;
37943;SDS011;23767;42.024;23.086;2023-08-08T07:22:28;4.18;;;1.35;;
37943;SDS011;23767;42.024;23.086;2023-08-08T07:24:54;3.08;;;1.30;;
37943;SDS011;23767;42.024;23.086;2023-08-08T07:27:20;8.35;;;1.50;;
37943;SDS011;23767;42.024;23.086;2023-08-08T07:29:47;2.95;;;1.35;;
37943;SDS011;23767;42.024;23.086;2023-08-08T07:32:13;3.33;;;1.50;;
37943;SDS011;23767;42.024;23.086;2023-08-08T07:34:39;2.70;;;1.23;;
37943;SDS011;23767;42.024;23.086;2023-08-08T07:37:05;4.85;;;1.60;;
37943;SDS011;23767;42.024;23.086;2023-08-08T07:39:31;2.63;;;1.40;;
37943;SDS011;23767;42.024;23.086;2023-08-08T07:41:57;3.40;;;1.20;;
37943;SDS011;23767;42.024;23.086;2023-08-08T07:44:23;2.75;;;1.27;;
37943;SDS011;23767;42.024;23.086;2023-08-08T07:46:49;2.30;;;1.40;;
37943;SDS011;23767;42.024;23.086;2023-08-08T07:49:15;2.65;;;1.33;;
37943;SDS011;23767;42.024;23.086;2023-08-08T07:51:41;3.90;;;1.40;;
37943;SDS011;23767;42.024;23.086;2023-08-08T07:54:07;6.20;;;1.50;;
37943;SDS011;23767;42.024;23.086;2023-08-08T07:56:34;3.22;;;1.20;;
37943;SDS011;23767;42.024;23.086;2023-08-08T07:59:00;5.05;;;1.30;;
37943;SDS011;23767;42.024;23.086;2023-08-08T08:01:27;2.50;;;1.20;;
37943;SDS011;23767;42.024;23.086;2023-08-08T08:03:53;2.20;;;1.05;;
37943;SDS011;23767;42.024;23.086;2023-08-08T08:06:19;2.40;;;1.20;;
37943;SDS011;23767;42.024;23.086;2023-08-08T08:08:45;2.35;;;1.00;;
37943;SDS011;23767;42.024;23.086;2023-08-08T08:11:11;3.28;;;1.20;;
37943;SDS011;23767;42.024;23.086;2023-08-08T08:13:38;2.35;;;1.10;;
37943;SDS011;23767;42.024;23.086;2023-08-08T08:16:04;1.77;;;1.08;;
37943;SDS011;23767;42.024;23.086;2023-08-08T08:18:30;1.85;;;1.20;;
37943;SDS011;23767;42.024;23.086;2023-08-08T08:20:58;1.67;;;1.00;;
37943;SDS011;23767;42.024;23.086;2023-08-08T08:23:24;1.65;;;0.90;;
37943;SDS011;23767;42.024;23.086;2023-08-08T08:25:51;1.92;;;1.00;;
37943;SDS011;23767;42.024;23.086;2023-08-08T08:28:17;1.30;;;0.90;;
37943;SDS011;23767;42.024;23.086;2023-08-08T08:30:43;2.17;;;0.98;;
37943;SDS011;23767;42.024;23.086;2023-08-08T08:33:09;4.00;;;0.93;;
37943;SDS011;23767;42.024;23.086;2023-08-08T08:35:35;4.35;;;0.80;;
37943;SDS011;23767;42.024;23.086;2023-08-08T08:38:02;3.45;;;0.90;;
37943;SDS011;23767;42.024;23.086;2023-08-08T08:40:29;1.83;;;1.08;;
37943;SDS011;23767;42.024;23.086;2023-08-08T08:42:56;2.53;;;0.80;;
37943;SDS011;23767;42.024;23.086;2023-08-08T08:45:22;3.38;;;1.20;;
37943;SDS011;23767;42.024;23.086;2023-08-08T08:47:49;4.03;;;1.08;;
37943;SDS011;23767;42.024;23.086;2023-08-08T08:50:15;2.55;;;1.15;;
37943;SDS011;23767;42.024;23.086;2023-08-08T08:52:43;3.28;;;1.20;;
37943;SDS011;23767;42.024;23.086;2023-08-08T08:55:09;2.05;;;0.98;;
37943;SDS011;23767;42.024;23.086;2023-08-08T08:57:36;4.57;;;1.05;;
37943;SDS011;23767;42.024;23.086;2023-08-08T09:00:02;2.92;;;0.95;;
37943;SDS011;23767;42.024;23.086;2023-08-08T09:02:30;3.50;;;1.30;;
37943;SDS011;23767;42.024;23.086;2023-08-08T09:04:57;2.58;;;1.05;;
37943;SDS011;23767;42.024;23.086;2023-08-08T09:07:23;1.65;;;1.10;;
37943;SDS011;23767;42.024;23.086;2023-08-08T09:09:52;2.10;;;1.17;;
37943;SDS011;23767;42.024;23.086;2023-08-08T09:12:18;2.30;;;1.02;;
37943;SDS011;23767;42.024;23.086;2023-08-08T09:14:44;2.97;;;1.40;;
37943;SDS011;23767;42.024;23.086;2023-08-08T09:17:13;2.45;;;1.20;;
37943;SDS011;23767;42.024;23.086;2023-08-08T09:19:43;4.93;;;1.10;;
37943;SDS011;23767;42.024;23.086;2023-08-08T09:22:10;5.85;;;1.38;;
37943;SDS011;23767;42.024;23.086;2023-08-08T09:24:38;3.90;;;1.10;;
37943;SDS011;23767;42.024;23.086;2023-08-08T09:27:06;2.63;;;1.20;;
37943;SDS011;23767;42.024;23.086;2023-08-08T09:29:32;2.75;;;1.10;;
37943;SDS011;23767;42.024;23.086;2023-08-08T09:31:58;4.38;;;1.13;;
37943;SDS011;23767;42.024;23.086;2023-08-08T09:34:24;2.05;;;1.05;;
37943;SDS011;23767;42.024;23.086;2023-08-08T09:36:51;2.10;;;1.00;;
37943;SDS011;23767;42.024;23.086;2023-08-08T09:39:19;2.67;;;1.25;;
37943;SDS011;23767;42.024;23.086;2023-08-08T09:41:45;4.15;;;1.20;;
37943;SDS011;23767;42.024;23.086;2023-08-08T09:44:12;4.40;;;1.38;;
37943;SDS011;23767;42.024;23.086;2023-08-08T09:46:39;3.15;;;1.30;;
37943;SDS011;23767;42.024;23.086;2023-08-08T09:49:05;2.60;;;1.30;;
37943;SDS011;23767;42.024;23.086;2023-08-08T09:51:31;2.83;;;1.17;;
37943;SDS011;23767;42.024;23.086;2023-08-08T09:53:58;3.35;;;1.50;;
37943;SDS011;23767;42.024;23.086;2023-08-08T09:56:24;2.00;;;1.10;;
37943;SDS011;23767;42.024;23.086;2023-08-08T09:58:51;4.78;;;1.27;;
37943;SDS011;23767;42.024;23.086;2023-08-08T10:01:18;2.05;;;1.10;;
37943;SDS011;23767;42.024;23.086;2023-08-08T10:03:44;2.72;;;1.33;;
37943;SDS011;23767;42.024;23.086;2023-08-08T10:06:11;2.47;;;1.33;;
37943;SDS011;23767;42.024;23.086;2023-08-08T10:08:37;1.60;;;0.95;;
37943;SDS011;23767;42.024;23.086;2023-08-08T10:11:03;2.22;;;1.20;;
37943;SDS011;23767;42.024;23.086;2023-08-08T10:13:30;1.95;;;1.13;;
37943;SDS011;23767;42.024;23.086;2023-08-08T10:15:57;4.38;;;1.35;;
37943;SDS011;23767;42.024;23.086;2023-08-08T10:18:23;2.55;;;1.27;;
37943;SDS011;23767;42.024;23.086;2023-08-08T10:20:49;2.50;;;1.20;;
37943;SDS011;23767;42.024;23.086;2023-08-08T10:23:19;2.78;;;1.15;;
37943;SDS011;23767;42.024;23.086;2023-08-08T10:25:46;3.22;;;1.20;;
37943;SDS011;23767;42.024;23.086;2023-08-08T10:28:14;3.08;;;1.23;;
37943;SDS011;23767;42.024;23.086;2023-08-08T10:33:16;3.75;;;1.20;;
37943;SDS011;23767;42.024;23.086;2023-08-08T10:35:50;3.90;;;1.23;;
37943;SDS011;23767;42.024;23.086;2023-08-08T10:38:16;3.90;;;1.30;;
37943;SDS011;23767;42.024;23.086;2023-08-08T10:40:43;4.03;;;1.65;;
37943;SDS011;23767;42.024;23.086;2023-08-08T10:43:09;2.50;;;1.25;;
37943;SDS011;23767;42.024;23.086;2023-08-08T10:45:37;3.95;;;1.40;;
37943;SDS011;23767;42.024;23.086;2023-08-08T10:48:09;2.10;;;1.35;;
37943;SDS011;23767;42.024;23.086;2023-08-08T10:50:41;5.70;;;1.70;;
37943;SDS011;23767;42.024;23.086;2023-08-08T10:53:08;3.80;;;2.08;;
37943;SDS011;23767;42.024;23.086;2023-08-08T10:55:37;2.63;;;1.52;;
37943;SDS011;23767;42.024;23.086;2023-08-08T11:00:36;2.60;;;1.58;;
37943;SDS011;23767;42.024;23.086;2023-08-08T11:03:04;3.58;;;1.50;;
37943;SDS011;23767;42.024;23.086;2023-08-08T11:05:31;5.75;;;2.05;;
37943;SDS011;23767;42.024;23.086;2023-08-08T11:07:58;3.53;;;1.80;;
37943;SDS011;23767;42.024;23.086;2023-08-08T11:10:24;2.80;;;1.70;;
37943;SDS011;23767;42.024;23.086;2023-08-08T11:12:59;2.97;;;1.60;;
37943;SDS011;23767;42.024;23.086;2023-08-08T11:15:25;3.25;;;1.95;;
37943;SDS011;23767;42.024;23.086;2023-08-08T11:17:52;5.47;;;1.75;;
37943;SDS011;23767;42.024;23.086;2023-08-08T11:20:20;3.17;;;1.60;;
37943;SDS011;23767;42.024;23.086;2023-08-08T11:22:50;3.70;;;1.50;;
37943;SDS011;23767;42.024;23.086;2023-08-08T11:25:17;2.73;;;1.57;;
37943;SDS011;23767;42.024;23.086;2023-08-08T11:27:52;2.92;;;1.70;;
37943;SDS011;23767;42.024;23.086;2023-08-08T11:30:19;3.67;;;1.63;;
37943;SDS011;23767;42.024;23.086;2023-08-08T11:32:46;2.70;;;1.42;;
37943;SDS011;23767;42.024;23.086;2023-08-08T11:35:15;2.75;;;1.52;;
37943;SDS011;23767;42.024;23.086;2023-08-08T11:37:42;3.38;;;1.50;;
37943;SDS011;23767;42.024;23.086;2023-08-08T11:40:08;2.88;;;1.42;;
37943;SDS011;23767;42.024;23.086;2023-08-08T11:42:34;3.88;;;1.40;;
37943;SDS011;23767;42.024;23.086;2023-08-08T11:45:01;4.55;;;1.65;;
37943;SDS011;23767;42.024;23.086;2023-08-08T11:47:29;4.55;;;1.48;;
37943;SDS011;23767;42.024;23.086;2023-08-08T11:50:00;3.37;;;1.30;;
37943;SDS011;23767;42.024;23.086;2023-08-08T11:52:27;5.30;;;1.63;;
37943;SDS011;23767;42.024;23.086;2023-08-08T11:54:53;2.30;;;1.10;;
37943;SDS011;23767;42.024;23.086;2023-08-08T11:57:20;1.92;;;1.10;;
37943;SDS011;23767;42.024;23.086;2023-08-08T11:59:47;3.15;;;1.30;;
37943;SDS011;23767;42.024;23.086;2023-08-08T12:02:14;1.52;;;1.10;;
37943;SDS011;23767;42.024;23.086;2023-08-08T12:04:44;2.75;;;1.13;;
37943;SDS011;23767;42.024;23.086;2023-08-08T12:07:10;1.13;;;0.82;;
37943;SDS011;23767;42.024;23.086;2023-08-08T12:09:37;2.25;;;1.10;;
37943;SDS011;23767;42.024;23.086;2023-08-08T12:12:03;4.00;;;1.38;;
37943;SDS011;23767;42.024;23.086;2023-08-08T12:14:30;2.47;;;1.00;;
37943;SDS011;23767;42.024;23.086;2023-08-08T12:16:56;5.80;;;1.17;;
37943;SDS011;23767;42.024;23.086;2023-08-08T12:19:23;2.15;;;1.00;;
37943;SDS011;23767;42.024;23.086;2023-08-08T12:21:49;2.88;;;1.05;;
37943;SDS011;23767;42.024;23.086;2023-08-08T12:24:16;2.03;;;1.05;;
37943;SDS011;23767;42.024;23.086;2023-08-08T12:26:42;1.80;;;1.00;;
37943;SDS011;23767;42.024;23.086;2023-08-08T12:29:08;1.80;;;1.10;;
37943;SDS011;23767;42.024;23.086;2023-08-08T12:31:34;2.35;;;1.20;;
37943;SDS011;23767;42.024;23.086;2023-08-08T12:34:00;3.35;;;0.90;;
37943;SDS011;23767;42.024;23.086;2023-08-08T12:36:26;2.85;;;1.00;;
37943;SDS011;23767;42.024;23.086;2023-08-08T12:38:52;2.05;;;1.00;;
37943;SDS011;23767;42.024;23.086;2023-08-08T12:41:18;1.70;;;1.00;;
37943;SDS011;23767;42.024;23.086;2023-08-08T12:43:44;2.67;;;0.90;;
37943;SDS011;23767;42.024;23.086;2023-08-08T12:46:10;1.63;;;0.90;;
37943;SDS011;23767;42.024;23.086;2023-08-08T12:48:36;2.53;;;0.90;;
37943;SDS011;23767;42.024;23.086;2023-08-08T12:51:02;2.63;;;0.90;;
37943;SDS011;23767;42.024;23.086;2023-08-08T12:53:29;3.40;;;0.90;;
37943;SDS011;23767;42.024;23.086;2023-08-08T12:55:56;3.00;;;0.90;;
37943;SDS011;23767;42.024;23.086;2023-08-08T12:58:22;3.45;;;1.30;;
37943;SDS011;23767;42.024;23.086;2023-08-08T13:00:48;1.45;;;0.80;;
37943;SDS011;23767;42.024;23.086;2023-08-08T13:03:14;1.92;;;0.90;;
37943;SDS011;23767;42.024;23.086;2023-08-08T13:05:40;3.78;;;1.00;;
37943;SDS011;23767;42.024;23.086;2023-08-08T13:08:06;4.25;;;0.90;;
37943;SDS011;23767;42.024;23.086;2023-08-08T13:10:32;4.88;;;0.90;;
37943;SDS011;23767;42.024;23.086;2023-08-08T13:12:58;2.00;;;0.90;;
37943;SDS011;23767;42.024;23.086;2023-08-08T13:15:24;2.33;;;0.95;;
37943;SDS011;23767;42.024;23.086;2023-08-08T13:17:50;2.85;;;1.00;;
37943;SDS011;23767;42.024;23.086;2023-08-08T13:20:16;5.57;;;0.90;;
37943;SDS011;23767;42.024;23.086;2023-08-08T13:22:42;2.15;;;0.80;;
37943;SDS011;23767;42.024;23.086;2023-08-08T13:25:08;2.05;;;0.80;;
37943;SDS011;23767;42.024;23.086;2023-08-08T13:27:35;3.70;;;0.90;;
37943;SDS011;23767;42.024;23.086;2023-08-08T13:30:01;1.08;;;0.65;;
37943;SDS011;23767;42.024;23.086;2023-08-08T13:32:27;3.42;;;0.90;;
37943;SDS011;23767;42.024;23.086;2023-08-08T13:34:53;1.83;;;0.80;;
37943;SDS011;23767;42.024;23.086;2023-08-08T13:37:19;2.22;;;0.80;;
37943;SDS011;23767;42.024;23.086;2023-08-08T13:39:45;3.17;;;0.73;;
37943;SDS011;23767;42.024;23.086;2023-08-08T13:42:11;2.33;;;0.77;;
37943;SDS011;23767;42.024;23.086;2023-08-08T13:44:38;1.13;;;0.70;;
37943;SDS011;23767;42.024;23.086;2023-08-08T13:47:04;3.17;;;0.80;;
37943;SDS011;23767;42.024;23.086;2023-08-08T13:49:30;1.63;;;0.70;;
37943;SDS011;23767;42.024;23.086;2023-08-08T13:51:56;2.70;;;0.85;;
37943;SDS011;23767;42.024;23.086;2023-08-08T13:54:23;1.38;;;0.80;;
37943;SDS011;23767;42.024;23.086;2023-08-08T13:56:49;1.38;;;0.77;;
37943;SDS011;23767;42.024;23.086;2023-08-08T13:59:15;3.47;;;0.70;;
37943;SDS011;23767;42.024;23.086;2023-08-08T14:01:41;3.72;;;1.08;;
37943;SDS011;23767;42.024;23.086;2023-08-08T14:04:07;1.05;;;0.70;;
37943;SDS011;23767;42.024;23.086;2023-08-08T14:06:33;1.67;;;0.88;;
37943;SDS011;23767;42.024;23.086;2023-08-08T14:08:59;1.70;;;0.80;;
37943;SDS011;23767;42.024;23.086;2023-08-08T14:11:25;1.52;;;0.80;;
37943;SDS011;23767;42.024;23.086;2023-08-08T14:13:52;2.17;;;0.80;;
37943;SDS011;23767;42.024;23.086;2023-08-08T14:16:18;2.25;;;0.90;;
37943;SDS011;23767;42.024;23.086;2023-08-08T14:18:44;2.60;;;0.80;;
37943;SDS011;23767;42.024;23.086;2023-08-08T14:21:10;2.83;;;0.90;;
37943;SDS011;23767;42.024;23.086;2023-08-08T14:23:36;2.83;;;0.80;;
37943;SDS011;23767;42.024;23.086;2023-08-08T14:26:02;3.80;;;0.88;;
37943;SDS011;23767;42.024;23.086;2023-08-08T14:28:28;4.53;;;0.80;;
37943;SDS011;23767;42.024;23.086;2023-08-08T14:30:54;1.63;;;0.73;;
37943;SDS011;23767;42.024;23.086;2023-08-08T14:33:20;1.27;;;0.75;;
37943;SDS011;23767;42.024;23.086;2023-08-08T14:35:46;1.63;;;0.80;;
37943;SDS011;23767;42.024;23.086;2023-08-08T14:38:12;1.65;;;0.90;;